Latest Weather Observations for Wattamolla

IDN60801

Issued at 5:32 pm EDT Monday 27 February 2017 (issued every 30 minutes, with the page automatically refreshed every 10 minutes)

About weather observations | Map of weather stations | Latest weather observations for NSW | Other Formats
Station Details ID: 066208 Name: WATTAMOLLA AWS Lat: -34.14 Lon: 151.12 Height: 44.0 m
Data from the previous 72 hours. | See also: Recent months for locations in New South Wales
Date/Time
EDT
Temp
°C
App
Temp
°C
Dew
Point
°C
Rel
Hum
%
Delta-T
°C
Wind Press
QNH
hPa
Press
MSL
hPa
Rain since
9am
mm
Dir  Spd
km/h
Gust
km/h
Spd
kts
Gust
kts
27/05:30pm - - - - - SSE 41 54 22 29 - - -
27/05:00pm - - - - - SSE 39 52 21 28 - - -
27/04:30pm - - - - - SSE 41 50 22 27 - - -
27/04:00pm - - - - - S 39 46 21 25 - - -
27/03:30pm - - - - - SSE 35 44 19 24 - - -
27/03:00pm - - - - - SSE 33 43 18 23 - - -
27/02:30pm - - - - - SSE 35 43 19 23 - - -
27/02:00pm - - - - - SSE 32 43 17 23 - - -
27/01:30pm - - - - - SSE 33 41 18 22 - - -
27/01:00pm - - - - - SSE 30 37 16 20 - - -
27/12:30pm - - - - - SSE 33 39 18 21 - - -
27/12:00pm - - - - - SSE 32 41 17 22 - - -
27/11:30am - - - - - SE 30 37 16 20 - - -
27/11:00am - - - - - SE 28 35 15 19 - - -
27/10:30am - - - - - SE 28 32 15 17 - - -
27/10:00am - - - - - SE 28 33 15 18 - - -
27/09:30am - - - - - SSE 28 33 15 18 - - -
27/09:00am - - - - - SSE 30 37 16 20 - - -
27/08:30am - - - - - SSE 30 35 16 19 - - -
27/08:00am - - - - - SE 28 35 15 19 - - -
27/07:30am - - - - - SE 30 37 16 20 - - -
27/07:00am - - - - - SE 32 39 17 21 - - -
27/06:30am - - - - - SE 32 37 17 20 - - -
27/06:00am - - - - - SE 35 41 19 22 - - -
27/05:30am - - - - - SE 28 37 15 20 - - -
27/05:00am - - - - - SE 39 46 21 25 - - -
27/04:30am - - - - - SE 32 43 17 23 - - -
27/04:00am - - - - - SE 37 44 20 24 - - -
27/03:30am - - - - - SE 35 50 19 27 - - -
27/03:21am - - - - - SE 30 50 16 27 - - -
27/03:00am - - - - - SE 30 41 16 22 - - -
27/02:30am - - - - - SSW 19 32 10 17 - - -
27/02:00am - - - - - SW 20 32 11 17 - - -
27/01:33am - - - - - S 28 50 15 27 - - -
27/01:30am - - - - - S 28 50 15 27 - - -
27/01:00am - - - - - S 22 37 12 20 - - -
27/12:30am - - - - - S 24 35 13 19 - - -
27/12:00am - - - - - S 28 41 15 22 - - -
 
Date/Time
EDT
Temp
°C
App
Temp
°C
Dew
Point
°C
Rel
Hum
%
Delta-T
°C
Wind Press
QNH
hPa
Press
MSL
hPa
Rain since
9am
mm
Dir  Spd
km/h
Gust
km/h
Spd
kts
Gust
kts
26/11:35pm - - - - - S 28 50 15 27 - - -
26/11:30pm - - - - - S 28 50 15 27 - - -
26/11:00pm - - - - - S 33 48 18 26 - - -
26/10:46pm - - - - - S 28 52 15 28 - - -
26/10:30pm - - - - - S 32 48 17 26 - - -
26/10:00pm - - - - - S 50 57 27 31 - - -
26/09:30pm - - - - - SSE 41 57 22 31 - - -
26/09:00pm - - - - - SSE 44 56 24 30 - - -
26/08:30pm - - - - - SSE 43 52 23 28 - - -
26/08:00pm - - - - - S 41 50 22 27 - - -
26/07:30pm - - - - - S 41 50 22 27 - - -
26/07:00pm - - - - - S 43 50 23 27 - - -
26/06:30pm - - - - - S 44 54 24 29 - - -
26/06:00pm - - - - - SSE 44 57 24 31 - - -
26/05:30pm - - - - - SSE 44 56 24 30 - - -
26/05:00pm - - - - - SSE 46 54 25 29 - - -
26/04:30pm - - - - - SSE 44 54 24 29 - - -
26/04:00pm - - - - - S 43 50 23 27 - - -
26/03:30pm - - - - - SSE 39 46 21 25 - - -
26/03:00pm - - - - - S 41 52 22 28 - - -
26/02:30pm - - - - - S 39 54 21 29 - - -
26/02:00pm - - - - - S 41 54 22 29 - - -
26/01:30pm - - - - - S 43 54 23 29 - - -
26/01:00pm - - - - - S 41 50 22 27 - - -
26/12:30pm - - - - - SSE 39 52 21 28 - - -
26/12:00pm - - - - - SSE 37 50 20 27 - - -
26/11:30am - - - - - SSE 37 46 20 25 - - -
26/11:00am - - - - - SSE 39 52 21 28 - - -
26/10:30am - - - - - SSE 39 50 21 27 - - -
26/10:00am - - - - - SSE 35 46 19 25 - - -
26/09:30am - - - - - SSE 41 52 22 28 - - -
26/09:00am - - - - - SSE 39 50 21 27 - - -
26/08:30am - - - - - SSE 39 50 21 27 - - -
26/08:00am - - - - - SSE 35 48 19 26 - - -
26/07:30am - - - - - SSE 35 44 19 24 - - -
26/07:00am - - - - - SSE 39 52 21 28 - - -
26/06:30am - - - - - SSE 39 50 21 27 - - -
26/06:17am - - - - - SSE 35 54 19 29 - - -
26/06:00am - - - - - SSE 32 44 17 24 - - -
26/05:30am - - - - - SSE 39 52 21 28 - - -
26/05:02am - - - - - SSE 52 70 28 38 - - -
26/05:00am - - - - - SSE 52 70 28 38 - - -
26/04:55am - - - - - SSE 44 70 24 38 - - -
26/04:51am - - - - - SSE 35 54 19 29 - - -
26/04:30am - - - - - SSE 37 46 20 25 - - -
26/04:00am - - - - - SSE 39 50 21 27 - - -
26/03:30am - - - - - SE 44 54 24 29 - - -
26/03:00am - - - - - SE 54 59 29 32 - - -
26/02:30am - - - - - SSE 56 65 30 35 - - -
26/02:10am - - - - - SSE 52 72 28 39 - - -
26/02:00am - - - - - SE 50 59 27 32 - - -
26/01:31am - - - - - SE 32 50 17 27 - - -
26/01:30am - - - - - SE 32 48 17 26 - - -
26/01:00am - - - - - SE 52 65 28 35 - - -
26/12:51am - - - - - SE 50 65 27 35 - - -
26/12:30am - - - - - E 24 43 13 23 - - -
26/12:00am - - - - - ENE 19 33 10 18 - - -
 
Date/Time
EDT
Temp
°C
App
Temp
°C
Dew
Point
°C
Rel
Hum
%
Delta-T
°C
Wind Press
QNH
hPa
Press
MSL
hPa
Rain since
9am
mm
Dir  Spd
km/h
Gust
km/h
Spd
kts
Gust
kts
25/11:30pm - - - - - E 17 28 9 15 - - -
25/11:00pm - - - - - SE 24 37 13 20 - - -
25/10:30pm - - - - - SW 19 30 10 16 - - -
25/10:00pm - - - - - S 26 44 14 24 - - -
25/09:34pm - - - - - S 28 52 15 28 - - -
25/09:30pm - - - - - S 20 39 11 21 - - -
25/09:00pm - - - - - S 22 33 12 18 - - -
25/08:30pm - - - - - S 24 35 13 19 - - -
25/08:00pm - - - - - S 32 43 17 23 - - -
25/07:30pm - - - - - S 37 50 20 27 - - -
25/07:00pm - - - - - S 46 54 25 29 - - -
25/06:32pm - - - - - S 41 59 22 32 - - -
25/06:30pm - - - - - S 39 56 21 30 - - -
25/06:00pm - - - - - S 44 56 24 30 - - -
25/05:30pm - - - - - S 46 56 25 30 - - -
25/05:00pm - - - - - S 52 61 28 33 - - -
25/04:33pm - - - - - S 46 65 25 35 - - -
25/04:30pm - - - - - S 46 59 25 32 - - -
25/04:00pm - - - - - S 57 63 31 34 - - -
25/03:30pm - - - - - S 52 61 28 33 - - -
25/03:11pm - - - - - S 52 70 28 38 - - -
25/03:00pm - - - - - S 48 59 26 32 - - -
25/02:30pm - - - - - S 50 57 27 31 - - -
25/02:00pm - - - - - S 46 57 25 31 - - -
25/01:30pm - - - - - S 52 61 28 33 - - -
25/01:00pm - - - - - S 54 63 29 34 - - -
25/12:30pm - - - - - S 57 65 31 35 - - -
25/12:00pm - - - - - S 56 61 30 33 - - -
25/11:30am - - - - - S 54 61 29 33 - - -
25/11:00am - - - - - S 57 67 31 36 - - -
25/10:30am - - - - - S 57 67 31 36 - - -
25/10:00am - - - - - S 57 65 31 35 - - -
25/09:30am - - - - - S 59 67 32 36 - - -
25/09:00am - - - - - S 59 70 32 38 - - -
25/08:30am - - - - - S 56 67 30 36 - - -
25/08:00am - - - - - S 59 67 32 36 - - -
25/07:30am - - - - - S 59 69 32 37 - - -
25/07:00am - - - - - S 59 70 32 38 - - -
25/06:30am - - - - - S 57 70 31 38 - - -
25/06:00am - - - - - S 57 65 31 35 - - -
25/05:30am - - - - - S 61 74 33 40 - - -
25/05:00am - - - - - S 52 69 28 37 - - -
25/04:30am - - - - - S 50 69 27 37 - - -
25/04:00am - - - - - S 43 63 23 34 - - -
25/03:30am - - - - - S 48 70 26 38 - - -
25/03:05am - - - - - S 46 72 25 39 - - -
25/03:00am - - - - - S 44 61 24 33 - - -
25/02:30am - - - - - S 44 69 24 37 - - -
25/02:06am - - - - - S 43 63 23 34 - - -
25/02:00am - - - - - S 41 56 22 30 - - -
25/01:46am - - - - - S 44 65 24 35 - - -
25/01:30am - - - - - S 41 57 22 31 - - -
25/01:00am - - - - - S 33 54 18 29 - - -
25/12:42am - - - - - S 33 52 18 28 - - -
25/12:30am - - - - - S 39 54 21 29 - - -
25/12:23am - - - - - S 33 50 18 27 - - -
25/12:00am - - - - - S 54 61 29 33 - - -
 
Date/Time
EDT
Temp
°C
App
Temp
°C
Dew
Point
°C
Rel
Hum
%
Delta-T
°C
Wind Press
QNH
hPa
Press
MSL
hPa
Rain since
9am
mm
Dir  Spd
km/h
Gust
km/h
Spd
kts
Gust
kts
24/11:41pm - - - - - S 35 57 19 31 - - -
24/11:30pm - - - - - S 32 41 17 22 - - -
24/11:00pm - - - - - S 41 50 22 27 - - -
24/10:30pm - - - - - S 50 56 27 30 - - -
24/10:00pm - - - - - S 33 41 18 22 - - -
24/09:30pm - - - - - S 32 39 17 21 - - -
24/09:00pm - - - - - S 28 39 15 21 - - -
24/08:30pm - - - - - S 22 32 12 17 - - -
24/08:00pm - - - - - S 20 30 11 16 - - -
24/07:30pm - - - - - S 20 30 11 16 - - -
24/07:00pm - - - - - S 19 30 10 16 - - -
24/06:30pm - - - - - S 32 41 17 22 - - -
24/06:00pm - - - - - S 20 30 11 16 - - -

Other Formats:

Comma delimited format used in spreadsheet applications
http://www.bom.gov.au/fwo/IDN60801/IDN60801.95752.axf

JavaScript Object Notation format (JSON) in row-major order
http://www.bom.gov.au/fwo/IDN60801/IDN60801.95752.json